Aviation Digital Data Service (ADDS)

Output produced by METARs form (0247 UTC 20 March 2019)
found at http://www.aviationweather.gov/metar/data/
 
METAR text: EGNS 200150Z 23006KT 9999 SCT014 10/09 Q1027
Conditions at: EGNS (ISLE OF MAN/RONA, GB) observed 0150 UTC 20 March 2019
Temperature: 10.0°C (50°F)
Dewpoint: 9.0°C (48°F) [RH = 93%]
Pressure (altimeter): 30.32 inches Hg (1027.0 mb)
Winds: from the SW (230 degrees) at 7 MPH (6 knots; 3.1 m/s)
Visibility: 6 or more miles (10+ km)
Ceiling: at least 12,000 feet AGL
Clouds: scattered clouds at 1400 feet AGL
Weather: no significant weather observed at this time

METAR text: EGNS 200050Z 26004KT 230V290 CAVOK 09/08 Q1027
Conditions at: EGNS (ISLE OF MAN/RONA, GB) observed 0050 UTC 20 March 2019
Temperature: 9.0°C (48°F)
Dewpoint: 8.0°C (46°F) [RH = 93%]
Pressure (altimeter): 30.32 inches Hg (1027.0 mb)
Winds: from the W (260 degrees) at 5 MPH (4 knots; 2.1 m/s)
Visibility: 6 or more miles (10+ km)
Ceiling: ceiling and visibility are OK
Clouds: unknown
Weather: no significant weather observed at this time

METAR text: EGNS 192350Z 23005KT 210V270 9999 FEW020 08/07 Q1027
Conditions at: EGNS (ISLE OF MAN/RONA, GB) observed 2350 UTC 19 March 2019
Temperature: 8.0°C (46°F)
Dewpoint: 7.0°C (45°F) [RH = 93%]
Pressure (altimeter): 30.32 inches Hg (1027.0 mb)
Winds: from the SW (230 degrees) at 6 MPH (5 knots; 2.6 m/s)
Visibility: 6 or more miles (10+ km)
Ceiling: at least 12,000 feet AGL
Clouds: few clouds at 2000 feet AGL
Weather: no significant weather observed at this time

METAR text: EGNS 192250Z 27007KT 9999 FEW020 09/08 Q1026
Conditions at: EGNS (ISLE OF MAN/RONA, GB) observed 2250 UTC 19 March 2019
Temperature: 9.0°C (48°F)
Dewpoint: 8.0°C (46°F) [RH = 93%]
Pressure (altimeter): 30.30 inches Hg (1026.0 mb)
Winds: from the W (270 degrees) at 8 MPH (7 knots; 3.6 m/s)
Visibility: 6 or more miles (10+ km)
Ceiling: at least 12,000 feet AGL
Clouds: few clouds at 2000 feet AGL
Weather: no significant weather observed at this time

METAR text: EGNS 192150Z 25008KT 220V280 9999 FEW022 09/08 Q1026
Conditions at: EGNS (ISLE OF MAN/RONA, GB) observed 2150 UTC 19 March 2019
Temperature: 9.0°C (48°F)
Dewpoint: 8.0°C (46°F) [RH = 93%]
Pressure (altimeter): 30.30 inches Hg (1026.0 mb)
Winds: from the WSW (250 degrees) at 9 MPH (8 knots; 4.1 m/s)
Visibility: 6 or more miles (10+ km)
Ceiling: at least 12,000 feet AGL
Clouds: few clouds at 2200 feet AGL
Weather: no significant weather observed at this time

METAR text: EGNS 192050Z 27004KT 9999 FEW004 09/08 Q1025
Conditions at: EGNS (ISLE OF MAN/RONA, GB) observed 2050 UTC 19 March 2019
Temperature: 9.0°C (48°F)
Dewpoint: 8.0°C (46°F) [RH = 93%]
Pressure (altimeter): 30.27 inches Hg (1025.0 mb)
Winds: from the W (270 degrees) at 5 MPH (4 knots; 2.1 m/s)
Visibility: 6 or more miles (10+ km)
Ceiling: at least 12,000 feet AGL
Clouds: few clouds at 400 feet AGL
Weather: no significant weather observed at this time

METAR text: EGNS 192020Z 26005KT 230V300 9999 FEW004 08/08 Q1025 NOSIG
Conditions at: EGNS (ISLE OF MAN/RONA, GB) observed 2020 UTC 19 March 2019
Temperature: 8.0°C (46°F)
Dewpoint: 8.0°C (46°F) [RH = 100%]
Pressure (altimeter): 30.27 inches Hg (1025.0 mb)
Winds: from the W (260 degrees) at 6 MPH (5 knots; 2.6 m/s)
Visibility: 6 or more miles (10+ km)
Ceiling: at least 12,000 feet AGL
Clouds: few clouds at 400 feet AGL
Weather: no significant weather observed at this time

METAR text: EGNS 191950Z VRB02KT 9999 SCT004 09/08 Q1025
Conditions at: EGNS (ISLE OF MAN/RONA, GB) observed 1950 UTC 19 March 2019
Temperature: 9.0°C (48°F)
Dewpoint: 8.0°C (46°F) [RH = 93%]
Pressure (altimeter): 30.27 inches Hg (1025.0 mb)
Winds: variable direction winds at 2 MPH (2 knots; 1.0 m/s)
Visibility: 6 or more miles (10+ km)
Ceiling: at least 12,000 feet AGL
Clouds: scattered clouds at 400 feet AGL
Weather: no significant weather observed at this time

METAR text: EGNS 191920Z VRB02KT 9999 BKN004 09/08 Q1025 NOSIG
Conditions at: EGNS (ISLE OF MAN/RONA, GB) observed 1920 UTC 19 March 2019
Temperature: 9.0°C (48°F)
Dewpoint: 8.0°C (46°F) [RH = 93%]
Pressure (altimeter): 30.27 inches Hg (1025.0 mb)
Winds: variable direction winds at 2 MPH (2 knots; 1.0 m/s)
Visibility: 6 or more miles (10+ km)
Ceiling: 400 feet AGL
Clouds: broken clouds at 400 feet AGL
Weather: no significant weather observed at this time

METAR text: EGNS 191850Z 28005KT 240V340 9999 SCT004 SCT012 09/08 Q1025 NOSIG
Conditions at: EGNS (ISLE OF MAN/RONA, GB) observed 1850 UTC 19 March 2019
Temperature: 9.0°C (48°F)
Dewpoint: 8.0°C (46°F) [RH = 93%]
Pressure (altimeter): 30.27 inches Hg (1025.0 mb)
Winds: from the W (280 degrees) at 6 MPH (5 knots; 2.6 m/s)
Visibility: 6 or more miles (10+ km)
Ceiling: at least 12,000 feet AGL
Clouds: scattered clouds at 400 feet AGL
scattered clouds at 1200 feet AGL
Weather: no significant weather observed at this time

METAR text: EGNS 191820Z 23010KT 200V260 9999 FEW005 SCT012 BKN033 09/08 Q1024 NOSIG
Conditions at: EGNS (ISLE OF MAN/RONA, GB) observed 1820 UTC 19 March 2019
Temperature: 9.0°C (48°F)
Dewpoint: 8.0°C (46°F) [RH = 93%]
Pressure (altimeter): 30.24 inches Hg (1024.0 mb)
Winds: from the SW (230 degrees) at 12 MPH (10 knots; 5.1 m/s)
Visibility: 6 or more miles (10+ km)
Ceiling: 3300 feet AGL
Clouds: few clouds at 500 feet AGL
scattered clouds at 1200 feet AGL
broken clouds at 3300 feet AGL
Weather: no significant weather observed at this time

METAR text: EGNS 191750Z 23005KT 190V270 9999 SCT005 BKN012 BKN033 09/09 Q1025 NOSIG
Conditions at: EGNS (ISLE OF MAN/RONA, GB) observed 1750 UTC 19 March 2019
Temperature: 9.0°C (48°F)
Dewpoint: 9.0°C (48°F) [RH = 100%]
Pressure (altimeter): 30.27 inches Hg (1025.0 mb)
Winds: from the SW (230 degrees) at 6 MPH (5 knots; 2.6 m/s)
Visibility: 6 or more miles (10+ km)
Ceiling: 1200 feet AGL
Clouds: scattered clouds at 500 feet AGL
broken clouds at 1200 feet AGL
broken clouds at 3300 feet AGL
Weather: no significant weather observed at this time

METAR text: EGNS 191720Z 24007KT 200V280 9999 FEW005 BKN015 BKN020 10/09 Q1024 NOSIG
Conditions at: EGNS (ISLE OF MAN/RONA, GB) observed 1720 UTC 19 March 2019
Temperature: 10.0°C (50°F)
Dewpoint: 9.0°C (48°F) [RH = 93%]
Pressure (altimeter): 30.24 inches Hg (1024.0 mb)
Winds: from the WSW (240 degrees) at 8 MPH (7 knots; 3.6 m/s)
Visibility: 6 or more miles (10+ km)
Ceiling: 1500 feet AGL
Clouds: few clouds at 500 feet AGL
broken clouds at 1500 feet AGL
broken clouds at 2000 feet AGL
Weather: no significant weather observed at this time

METAR text: EGNS 191650Z 24010KT 210V270 9999 FEW007 SCT015 BKN020 10/09 Q1024 NOSIG
Conditions at: EGNS (ISLE OF MAN/RONA, GB) observed 1650 UTC 19 March 2019
Temperature: 10.0°C (50°F)
Dewpoint: 9.0°C (48°F) [RH = 93%]
Pressure (altimeter): 30.24 inches Hg (1024.0 mb)
Winds: from the WSW (240 degrees) at 12 MPH (10 knots; 5.1 m/s)
Visibility: 6 or more miles (10+ km)
Ceiling: 2000 feet AGL
Clouds: few clouds at 700 feet AGL
scattered clouds at 1500 feet AGL
broken clouds at 2000 feet AGL
Weather: no significant weather observed at this time

METAR text: EGNS 191620Z 24008KT 210V270 8000 -DZ BKN003 OVC007 09/09 Q1024 NOSIG
Conditions at: EGNS (ISLE OF MAN/RONA, GB) observed 1620 UTC 19 March 2019
Temperature: 9.0°C (48°F)
Dewpoint: 9.0°C (48°F) [RH = 100%]
Pressure (altimeter): 30.24 inches Hg (1024.0 mb)
Winds: from the WSW (240 degrees) at 9 MPH (8 knots; 4.1 m/s)
Visibility: 5 miles ( 8 km)
Ceiling: 300 feet AGL
Clouds: broken clouds at 300 feet AGL
overcast cloud deck at 700 feet AGL
Weather: -DZ  (light drizzle)

METAR text: EGNS 191550Z 24010KT 200V270 9999 FEW003 OVC005 09/08 Q1024 NOSIG
Conditions at: EGNS (ISLE OF MAN/RONA, GB) observed 1550 UTC 19 March 2019
Temperature: 9.0°C (48°F)
Dewpoint: 8.0°C (46°F) [RH = 93%]
Pressure (altimeter): 30.24 inches Hg (1024.0 mb)
Winds: from the WSW (240 degrees) at 12 MPH (10 knots; 5.1 m/s)
Visibility: 6 or more miles (10+ km)
Ceiling: 500 feet AGL
Clouds: few clouds at 300 feet AGL
overcast cloud deck at 500 feet AGL
Weather: no significant weather observed at this time

METAR text: EGNS 191520Z 23010KT 9999 FEW004 OVC011 09/08 Q1024 NOSIG
Conditions at: EGNS (ISLE OF MAN/RONA, GB) observed 1520 UTC 19 March 2019
Temperature: 9.0°C (48°F)
Dewpoint: 8.0°C (46°F) [RH = 93%]
Pressure (altimeter): 30.24 inches Hg (1024.0 mb)
Winds: from the SW (230 degrees) at 12 MPH (10 knots; 5.1 m/s)
Visibility: 6 or more miles (10+ km)
Ceiling: 1100 feet AGL
Clouds: few clouds at 400 feet AGL
overcast cloud deck at 1100 feet AGL
Weather: no significant weather observed at this time

METAR text: EGNS 191450Z 22011KT 190V250 7000 -DZ FEW003 OVC005 09/08 Q1024 BECMG BKN010
Conditions at: EGNS (ISLE OF MAN/RONA, GB) observed 1450 UTC 19 March 2019
Temperature: 9.0°C (48°F)
Dewpoint: 8.0°C (46°F) [RH = 93%]
Pressure (altimeter): 30.24 inches Hg (1024.0 mb)
Winds: from the SW (220 degrees) at 13 MPH (11 knots; 5.7 m/s)
Visibility: 4 miles ( 7 km)
Ceiling: 500 feet AGL
Clouds: few clouds at 300 feet AGL
overcast cloud deck at 500 feet AGL
Weather: -DZ  (light drizzle)

METAR text: EGNS 191420Z 22012KT 7000 -DZ FEW003 OVC005 09/08 Q1023 BECMG BKN010
Conditions at: EGNS (ISLE OF MAN/RONA, GB) observed 1420 UTC 19 March 2019
Temperature: 9.0°C (48°F)
Dewpoint: 8.0°C (46°F) [RH = 93%]
Pressure (altimeter): 30.21 inches Hg (1023.0 mb)
Winds: from the SW (220 degrees) at 14 MPH (12 knots; 6.2 m/s)
Visibility: 4 miles ( 7 km)
Ceiling: 500 feet AGL
Clouds: few clouds at 300 feet AGL
overcast cloud deck at 500 feet AGL
Weather: -DZ  (light drizzle)

METAR text: EGNS 191350Z 22013KT 9999 -DZ FEW003 OVC005 09/08 Q1023 BECMG BKN010
Conditions at: EGNS (ISLE OF MAN/RONA, GB) observed 1350 UTC 19 March 2019
Temperature: 9.0°C (48°F)
Dewpoint: 8.0°C (46°F) [RH = 93%]
Pressure (altimeter): 30.21 inches Hg (1023.0 mb)
Winds: from the SW (220 degrees) at 15 MPH (13 knots; 6.7 m/s)
Visibility: 6 or more miles (10+ km)
Ceiling: 500 feet AGL
Clouds: few clouds at 300 feet AGL
overcast cloud deck at 500 feet AGL
Weather: -DZ  (light drizzle)

METAR text: EGNS 191320Z 22012KT 9999 FEW002 OVC004 09/08 Q1023 BECMG BKN010
Conditions at: EGNS (ISLE OF MAN/RONA, GB) observed 1320 UTC 19 March 2019
Temperature: 9.0°C (48°F)
Dewpoint: 8.0°C (46°F) [RH = 93%]
Pressure (altimeter): 30.21 inches Hg (1023.0 mb)
Winds: from the SW (220 degrees) at 14 MPH (12 knots; 6.2 m/s)
Visibility: 6 or more miles (10+ km)
Ceiling: 400 feet AGL
Clouds: few clouds at 200 feet AGL
overcast cloud deck at 400 feet AGL
Weather: no significant weather observed at this time

METAR text: EGNS 191250Z 22014KT 9999 -DZ FEW002 OVC004 08/08 Q1023 BECMG BKN010
Conditions at: EGNS (ISLE OF MAN/RONA, GB) observed 1250 UTC 19 March 2019
Temperature: 8.0°C (46°F)
Dewpoint: 8.0°C (46°F) [RH = 100%]
Pressure (altimeter): 30.21 inches Hg (1023.0 mb)
Winds: from the SW (220 degrees) at 16 MPH (14 knots; 7.2 m/s)
Visibility: 6 or more miles (10+ km)
Ceiling: 400 feet AGL
Clouds: few clouds at 200 feet AGL
overcast cloud deck at 400 feet AGL
Weather: -DZ  (light drizzle)

METAR text: EGNS 191220Z 22014KT 4000 -DZ OVC003 08/08 Q1024 BECMG 8000 BKN006
Conditions at: EGNS (ISLE OF MAN/RONA, GB) observed 1220 UTC 19 March 2019
Temperature: 8.0°C (46°F)
Dewpoint: 8.0°C (46°F) [RH = 100%]
Pressure (altimeter): 30.24 inches Hg (1024.0 mb)
Winds: from the SW (220 degrees) at 16 MPH (14 knots; 7.2 m/s)
Visibility: 2.49 miles (4.01 km)
Ceiling: 300 feet AGL
Clouds: overcast cloud deck at 300 feet AGL
Weather: -DZ  (light drizzle)

METAR text: EGNS 191150Z 22013KT 3500 -DZ BKN002 OVC004 09/08 Q1024 BECMG 8000 BKN007
Conditions at: EGNS (ISLE OF MAN/RONA, GB) observed 1150 UTC 19 March 2019
Temperature: 9.0°C (48°F)
Dewpoint: 8.0°C (46°F) [RH = 93%]
Pressure (altimeter): 30.24 inches Hg (1024.0 mb)
Winds: from the SW (220 degrees) at 15 MPH (13 knots; 6.7 m/s)
Visibility: 2.17 miles (3.49 km)
Ceiling: 200 feet AGL
Clouds: broken clouds at 200 feet AGL
overcast cloud deck at 400 feet AGL
Weather: -DZ  (light drizzle)

METAR text: EGNS 191120Z 22012KT 6000 -DZ BKN006 BKN016 OVC025 09/08 Q1024 TEMPO 9999 NSW
Conditions at: EGNS (ISLE OF MAN/RONA, GB) observed 1120 UTC 19 March 2019
Temperature: 9.0°C (48°F)
Dewpoint: 8.0°C (46°F) [RH = 93%]
Pressure (altimeter): 30.24 inches Hg (1024.0 mb)
Winds: from the SW (220 degrees) at 14 MPH (12 knots; 6.2 m/s)
Visibility: 4 miles ( 6 km)
Ceiling: 600 feet AGL
Clouds: broken clouds at 600 feet AGL
broken clouds at 1600 feet AGL
overcast cloud deck at 2500 feet AGL
Weather: -DZ  (light drizzle)

METAR text: EGNS 191050Z 23011KT 200V260 9999 9000NW FEW007 BKN017 OVC030 10/08 Q1024 TEMPO 7000 -RADZ BKN008
Conditions at: EGNS (ISLE OF MAN/RONA, GB) observed 1050 UTC 19 March 2019
Temperature: 10.0°C (50°F)
Dewpoint: 8.0°C (46°F) [RH = 87%]
Pressure (altimeter): 30.24 inches Hg (1024.0 mb)
Winds: from the SW (230 degrees) at 13 MPH (11 knots; 5.7 m/s)
Visibility: 6 or more miles (10+ km)
Ceiling: 1700 feet AGL
Clouds: few clouds at 700 feet AGL
broken clouds at 1700 feet AGL
overcast cloud deck at 3000 feet AGL
Weather: no significant weather observed at this time

METAR text: EGNS 191020Z 23012KT 200V260 9999 FEW008 SCT024 BKN040 09/08 Q1024 TEMPO 7000 -RADZ BKN008
Conditions at: EGNS (ISLE OF MAN/RONA, GB) observed 1020 UTC 19 March 2019
Temperature: 9.0°C (48°F)
Dewpoint: 8.0°C (46°F) [RH = 93%]
Pressure (altimeter): 30.24 inches Hg (1024.0 mb)
Winds: from the SW (230 degrees) at 14 MPH (12 knots; 6.2 m/s)
Visibility: 6 or more miles (10+ km)
Ceiling: 4000 feet AGL
Clouds: few clouds at 800 feet AGL
scattered clouds at 2400 feet AGL
broken clouds at 4000 feet AGL
Weather: no significant weather observed at this time

METAR text: EGNS 190950Z 24012KT 210V270 9999 FEW008 BKN030 09/07 Q1024 NOSIG
Conditions at: EGNS (ISLE OF MAN/RONA, GB) observed 0950 UTC 19 March 2019
Temperature: 9.0°C (48°F)
Dewpoint: 7.0°C (45°F) [RH = 87%]
Pressure (altimeter): 30.24 inches Hg (1024.0 mb)
Winds: from the WSW (240 degrees) at 14 MPH (12 knots; 6.2 m/s)
Visibility: 6 or more miles (10+ km)
Ceiling: 3000 feet AGL
Clouds: few clouds at 800 feet AGL
broken clouds at 3000 feet AGL
Weather: no significant weather observed at this time

METAR text: EGNS 190920Z 24013KT 210V280 9999 FEW008 BKN042 09/07 Q1024 TEMPO 7000 -RADZ BKN008
Conditions at: EGNS (ISLE OF MAN/RONA, GB) observed 0920 UTC 19 March 2019
Temperature: 9.0°C (48°F)
Dewpoint: 7.0°C (45°F) [RH = 87%]
Pressure (altimeter): 30.24 inches Hg (1024.0 mb)
Winds: from the WSW (240 degrees) at 15 MPH (13 knots; 6.7 m/s)
Visibility: 6 or more miles (10+ km)
Ceiling: 4200 feet AGL
Clouds: few clouds at 800 feet AGL
broken clouds at 4200 feet AGL
Weather: no significant weather observed at this time

METAR text: EGNS 190850Z 24012KT 9999 FEW008 09/07 Q1023 TEMPO 7000 -RADZ BKN008
Conditions at: EGNS (ISLE OF MAN/RONA, GB) observed 0850 UTC 19 March 2019
Temperature: 9.0°C (48°F)
Dewpoint: 7.0°C (45°F) [RH = 87%]
Pressure (altimeter): 30.21 inches Hg (1023.0 mb)
Winds: from the WSW (240 degrees) at 14 MPH (12 knots; 6.2 m/s)
Visibility: 6 or more miles (10+ km)
Ceiling: at least 12,000 feet AGL
Clouds: few clouds at 800 feet AGL
Weather: no significant weather observed at this time

METAR text: EGNS 190820Z 24010KT 9999 FEW008 08/07 Q1023 NOSIG
Conditions at: EGNS (ISLE OF MAN/RONA, GB) observed 0820 UTC 19 March 2019
Temperature: 8.0°C (46°F)
Dewpoint: 7.0°C (45°F) [RH = 93%]
Pressure (altimeter): 30.21 inches Hg (1023.0 mb)
Winds: from the WSW (240 degrees) at 12 MPH (10 knots; 5.1 m/s)
Visibility: 6 or more miles (10+ km)
Ceiling: at least 12,000 feet AGL
Clouds: few clouds at 800 feet AGL
Weather: no significant weather observed at this time

METAR text: EGNS 190750Z 24008KT 210V270 9999 -RA FEW008 08/07 Q1023 TEMPO 7000 BKN007
Conditions at: EGNS (ISLE OF MAN/RONA, GB) observed 0750 UTC 19 March 2019
Temperature: 8.0°C (46°F)
Dewpoint: 7.0°C (45°F) [RH = 93%]
Pressure (altimeter): 30.21 inches Hg (1023.0 mb)
Winds: from the WSW (240 degrees) at 9 MPH (8 knots; 4.1 m/s)
Visibility: 6 or more miles (10+ km)
Ceiling: at least 12,000 feet AGL
Clouds: few clouds at 800 feet AGL
Weather: -RA  (light rain)

METAR text: EGNS 190720Z 24009KT 210V270 9999 FEW006 08/08 Q1023 TEMPO 7000 -RADZ BKN006
Conditions at: EGNS (ISLE OF MAN/RONA, GB) observed 0720 UTC 19 March 2019
Temperature: 8.0°C (46°F)
Dewpoint: 8.0°C (46°F) [RH = 100%]
Pressure (altimeter): 30.21 inches Hg (1023.0 mb)
Winds: from the WSW (240 degrees) at 10 MPH (9 knots; 4.6 m/s)
Visibility: 6 or more miles (10+ km)
Ceiling: at least 12,000 feet AGL
Clouds: few clouds at 600 feet AGL
Weather: no significant weather observed at this time

METAR text: EGNS 190650Z 25007KT 220V280 9999 FEW005 SCT030 08/08 Q1023 TEMPO 7000 RADZ BKN005
Conditions at: EGNS (ISLE OF MAN/RONA, GB) observed 0650 UTC 19 March 2019
Temperature: 8.0°C (46°F)
Dewpoint: 8.0°C (46°F) [RH = 100%]
Pressure (altimeter): 30.21 inches Hg (1023.0 mb)
Winds: from the WSW (250 degrees) at 8 MPH (7 knots; 3.6 m/s)
Visibility: 6 or more miles (10+ km)
Ceiling: at least 12,000 feet AGL
Clouds: few clouds at 500 feet AGL
scattered clouds at 3000 feet AGL
Weather: no significant weather observed at this time

METAR text: EGNS 190620Z 26006KT 230V290 9999 FEW005 OVC030 08/07 Q1023 TEMPO 7000 RADZ BKN007
Conditions at: EGNS (ISLE OF MAN/RONA, GB) observed 0620 UTC 19 March 2019
Temperature: 8.0°C (46°F)
Dewpoint: 7.0°C (45°F) [RH = 93%]
Pressure (altimeter): 30.21 inches Hg (1023.0 mb)
Winds: from the W (260 degrees) at 7 MPH (6 knots; 3.1 m/s)
Visibility: 6 or more miles (10+ km)
Ceiling: 3000 feet AGL
Clouds: few clouds at 500 feet AGL
overcast cloud deck at 3000 feet AGL
Weather: no significant weather observed at this time

METAR text: EGNS 190550Z 27004KT 9999 FEW008 OVC030 08/07 Q1023 REDZ TEMPO 7000 RADZ BKN007
Conditions at: EGNS (ISLE OF MAN/RONA, GB) observed 0550 UTC 19 March 2019
Temperature: 8.0°C (46°F)
Dewpoint: 7.0°C (45°F) [RH = 93%]
Pressure (altimeter): 30.21 inches Hg (1023.0 mb)
Winds: from the W (270 degrees) at 5 MPH (4 knots; 2.1 m/s)
Visibility: 6 or more miles (10+ km)
Ceiling: 3000 feet AGL
Clouds: few clouds at 800 feet AGL
overcast cloud deck at 3000 feet AGL
Weather: no significant weather observed at this time

METAR text: EGNS 190520Z 26006KT 9999 -DZ FEW007 BKN024 OVC030 08/08 Q1023 TEMPO 7000 RADZ BKN007
Conditions at: EGNS (ISLE OF MAN/RONA, GB) observed 0520 UTC 19 March 2019
Temperature: 8.0°C (46°F)
Dewpoint: 8.0°C (46°F) [RH = 100%]
Pressure (altimeter): 30.21 inches Hg (1023.0 mb)
Winds: from the W (260 degrees) at 7 MPH (6 knots; 3.1 m/s)
Visibility: 6 or more miles (10+ km)
Ceiling: 2400 feet AGL
Clouds: few clouds at 700 feet AGL
broken clouds at 2400 feet AGL
overcast cloud deck at 3000 feet AGL
Weather: -DZ  (light drizzle)

METAR text: EGNS 190450Z 27005KT 9999 -DZ FEW007 OVC024 08/08 Q1023 TEMPO 7000 RADZ BKN007
Conditions at: EGNS (ISLE OF MAN/RONA, GB) observed 0450 UTC 19 March 2019
Temperature: 8.0°C (46°F)
Dewpoint: 8.0°C (46°F) [RH = 100%]
Pressure (altimeter): 30.21 inches Hg (1023.0 mb)
Winds: from the W (270 degrees) at 6 MPH (5 knots; 2.6 m/s)
Visibility: 6 or more miles (10+ km)
Ceiling: 2400 feet AGL
Clouds: few clouds at 700 feet AGL
overcast cloud deck at 2400 feet AGL
Weather: -DZ  (light drizzle)

METAR text: EGNS 190350Z 28004KT 9999 BKN016 BKN023 OVC027 08/08 Q1023
Conditions at: EGNS (ISLE OF MAN/RONA, GB) observed 0350 UTC 19 March 2019
Temperature: 8.0°C (46°F)
Dewpoint: 8.0°C (46°F) [RH = 100%]
Pressure (altimeter): 30.21 inches Hg (1023.0 mb)
Winds: from the W (280 degrees) at 5 MPH (4 knots; 2.1 m/s)
Visibility: 6 or more miles (10+ km)
Ceiling: 1600 feet AGL
Clouds: broken clouds at 1600 feet AGL
broken clouds at 2300 feet AGL
overcast cloud deck at 2700 feet AGL
Weather: no significant weather observed at this time

METAR text: EGNS 190250Z 26002KT 9999 BKN016 OVC024 08/08 Q1022
Conditions at: EGNS (ISLE OF MAN/RONA, GB) observed 0250 UTC 19 March 2019
Temperature: 8.0°C (46°F)
Dewpoint: 8.0°C (46°F) [RH = 100%]
Pressure (altimeter): 30.18 inches Hg (1022.0 mb)
Winds: from the W (260 degrees) at 2 MPH (2 knots; 1.0 m/s)
Visibility: 6 or more miles (10+ km)
Ceiling: 1600 feet AGL
Clouds: broken clouds at 1600 feet AGL
overcast cloud deck at 2400 feet AGL
Weather: no significant weather observed at this time

METAR text: EGNS 190150Z 27003KT 8000 -DZ SCT016 BKN023 BKN035 08/08 Q1023
Conditions at: EGNS (ISLE OF MAN/RONA, GB) observed 0150 UTC 19 March 2019
Temperature: 8.0°C (46°F)
Dewpoint: 8.0°C (46°F) [RH = 100%]
Pressure (altimeter): 30.21 inches Hg (1023.0 mb)
Winds: from the W (270 degrees) at 3 MPH (3 knots; 1.5 m/s)
Visibility: 5 miles ( 8 km)
Ceiling: 2300 feet AGL
Clouds: scattered clouds at 1600 feet AGL
broken clouds at 2300 feet AGL
broken clouds at 3500 feet AGL
Weather: -DZ  (light drizzle)

METAR text: EGNS 190050Z 28004KT 9999 FEW018 08/07 Q1022
Conditions at: EGNS (ISLE OF MAN/RONA, GB) observed 0050 UTC 19 March 2019
Temperature: 8.0°C (46°F)
Dewpoint: 7.0°C (45°F) [RH = 93%]
Pressure (altimeter): 30.18 inches Hg (1022.0 mb)
Winds: from the W (280 degrees) at 5 MPH (4 knots; 2.1 m/s)
Visibility: 6 or more miles (10+ km)
Ceiling: at least 12,000 feet AGL
Clouds: few clouds at 1800 feet AGL
Weather: no significant weather observed at this time

METAR text: EGNS 182350Z 30003KT 9999 FEW025 08/07 Q1023
Conditions at: EGNS (ISLE OF MAN/RONA, GB) observed 2350 UTC 18 March 2019
Temperature: 8.0°C (46°F)
Dewpoint: 7.0°C (45°F) [RH = 93%]
Pressure (altimeter): 30.21 inches Hg (1023.0 mb)
Winds: from the WNW (300 degrees) at 3 MPH (3 knots; 1.5 m/s)
Visibility: 6 or more miles (10+ km)
Ceiling: at least 12,000 feet AGL
Clouds: few clouds at 2500 feet AGL
Weather: no significant weather observed at this time

METAR text: EGNS 182250Z 28005KT 9999 FEW025 07/07 Q1022
Conditions at: EGNS (ISLE OF MAN/RONA, GB) observed 2250 UTC 18 March 2019
Temperature: 7.0°C (45°F)
Dewpoint: 7.0°C (45°F) [RH = 100%]
Pressure (altimeter): 30.18 inches Hg (1022.0 mb)
Winds: from the W (280 degrees) at 6 MPH (5 knots; 2.6 m/s)
Visibility: 6 or more miles (10+ km)
Ceiling: at least 12,000 feet AGL
Clouds: few clouds at 2500 feet AGL
Weather: no significant weather observed at this time

METAR text: EGNS 182150Z VRB02KT 9999 FEW010 BKN049 08/07 Q1022
Conditions at: EGNS (ISLE OF MAN/RONA, GB) observed 2150 UTC 18 March 2019
Temperature: 8.0°C (46°F)
Dewpoint: 7.0°C (45°F) [RH = 93%]
Pressure (altimeter): 30.18 inches Hg (1022.0 mb)
Winds: variable direction winds at 2 MPH (2 knots; 1.0 m/s)
Visibility: 6 or more miles (10+ km)
Ceiling: 4900 feet AGL
Clouds: few clouds at 1000 feet AGL
broken clouds at 4900 feet AGL
Weather: no significant weather observed at this time

METAR text: EGNS 182050Z VRB03KT 9999 FEW010 BKN042 08/08 Q1021 NOSIG
Conditions at: EGNS (ISLE OF MAN/RONA, GB) observed 2050 UTC 18 March 2019
Temperature: 8.0°C (46°F)
Dewpoint: 8.0°C (46°F) [RH = 100%]
Pressure (altimeter): 30.15 inches Hg (1021.0 mb)
Winds: variable direction winds at 3 MPH (3 knots; 1.5 m/s)
Visibility: 6 or more miles (10+ km)
Ceiling: 4200 feet AGL
Clouds: few clouds at 1000 feet AGL
broken clouds at 4200 feet AGL
Weather: no significant weather observed at this time

METAR text: EGNS 182020Z 27005KT 9999 -SHRA FEW010 BKN040 08/08 Q1021 NOSIG
Conditions at: EGNS (ISLE OF MAN/RONA, GB) observed 2020 UTC 18 March 2019
Temperature: 8.0°C (46°F)
Dewpoint: 8.0°C (46°F) [RH = 100%]
Pressure (altimeter): 30.15 inches Hg (1021.0 mb)
Winds: from the W (270 degrees) at 6 MPH (5 knots; 2.6 m/s)
Visibility: 6 or more miles (10+ km)
Ceiling: 4000 feet AGL
Clouds: few clouds at 1000 feet AGL
broken clouds at 4000 feet AGL
Weather: -SHRA  (light rain showers)

METAR text: EGNS 181950Z 28006KT 250V320 9999 -SHRA FEW010 09/08 Q1021 NOSIG
Conditions at: EGNS (ISLE OF MAN/RONA, GB) observed 1950 UTC 18 March 2019
Temperature: 9.0°C (48°F)
Dewpoint: 8.0°C (46°F) [RH = 93%]
Pressure (altimeter): 30.15 inches Hg (1021.0 mb)
Winds: from the W (280 degrees) at 7 MPH (6 knots; 3.1 m/s)
Visibility: 6 or more miles (10+ km)
Ceiling: at least 12,000 feet AGL
Clouds: few clouds at 1000 feet AGL
Weather: -SHRA  (light rain showers)

METAR text: EGNS 181920Z 30006KT 270V330 9999 -SHRA FEW010 09/07 Q1021 NOSIG
Conditions at: EGNS (ISLE OF MAN/RONA, GB) observed 1920 UTC 18 March 2019
Temperature: 9.0°C (48°F)
Dewpoint: 7.0°C (45°F) [RH = 87%]
Pressure (altimeter): 30.15 inches Hg (1021.0 mb)
Winds: from the WNW (300 degrees) at 7 MPH (6 knots; 3.1 m/s)
Visibility: 6 or more miles (10+ km)
Ceiling: at least 12,000 feet AGL
Clouds: few clouds at 1000 feet AGL
Weather: -SHRA  (light rain showers)

METAR text: EGNS 181850Z 29007KT 230V320 9999 FEW010 09/07 Q1020 NOSIG
Conditions at: EGNS (ISLE OF MAN/RONA, GB) observed 1850 UTC 18 March 2019
Temperature: 9.0°C (48°F)
Dewpoint: 7.0°C (45°F) [RH = 87%]
Pressure (altimeter): 30.12 inches Hg (1020.0 mb)
Winds: from the WNW (290 degrees) at 8 MPH (7 knots; 3.6 m/s)
Visibility: 6 or more miles (10+ km)
Ceiling: at least 12,000 feet AGL
Clouds: few clouds at 1000 feet AGL
Weather: no significant weather observed at this time

METAR text: EGNS 181820Z 28007KT 250V310 9999 FEW007 SCT046 09/07 Q1020 NOSIG
Conditions at: EGNS (ISLE OF MAN/RONA, GB) observed 1820 UTC 18 March 2019
Temperature: 9.0°C (48°F)
Dewpoint: 7.0°C (45°F) [RH = 87%]
Pressure (altimeter): 30.12 inches Hg (1020.0 mb)
Winds: from the W (280 degrees) at 8 MPH (7 knots; 3.6 m/s)
Visibility: 6 or more miles (10+ km)
Ceiling: at least 12,000 feet AGL
Clouds: few clouds at 700 feet AGL
scattered clouds at 4600 feet AGL
Weather: no significant weather observed at this time

METAR text: EGNS 181750Z 29009KT 260V320 9999 FEW007 BKN048 09/07 Q1019 NOSIG
Conditions at: EGNS (ISLE OF MAN/RONA, GB) observed 1750 UTC 18 March 2019
Temperature: 9.0°C (48°F)
Dewpoint: 7.0°C (45°F) [RH = 87%]
Pressure (altimeter): 30.09 inches Hg (1019.0 mb)
Winds: from the WNW (290 degrees) at 10 MPH (9 knots; 4.6 m/s)
Visibility: 6 or more miles (10+ km)
Ceiling: 4800 feet AGL
Clouds: few clouds at 700 feet AGL
broken clouds at 4800 feet AGL
Weather: no significant weather observed at this time

METAR text: EGNS 181720Z 28008KT 9999 FEW007 BKN045 09/08 Q1019 NOSIG
Conditions at: EGNS (ISLE OF MAN/RONA, GB) observed 1720 UTC 18 March 2019
Temperature: 9.0°C (48°F)
Dewpoint: 8.0°C (46°F) [RH = 93%]
Pressure (altimeter): 30.09 inches Hg (1019.0 mb)
Winds: from the W (280 degrees) at 9 MPH (8 knots; 4.1 m/s)
Visibility: 6 or more miles (10+ km)
Ceiling: 4500 feet AGL
Clouds: few clouds at 700 feet AGL
broken clouds at 4500 feet AGL
Weather: no significant weather observed at this time

METAR text: EGNS 181650Z 27006KT 240V300 9999 FEW007 BKN045 09/08 Q1019 TEMPO 6000 SHRA
Conditions at: EGNS (ISLE OF MAN/RONA, GB) observed 1650 UTC 18 March 2019
Temperature: 9.0°C (48°F)
Dewpoint: 8.0°C (46°F) [RH = 93%]
Pressure (altimeter): 30.09 inches Hg (1019.0 mb)
Winds: from the W (270 degrees) at 7 MPH (6 knots; 3.1 m/s)
Visibility: 6 or more miles (10+ km)
Ceiling: 4500 feet AGL
Clouds: few clouds at 700 feet AGL
broken clouds at 4500 feet AGL
Weather: no significant weather observed at this time

METAR text: EGNS 181620Z 28010KT 250V310 9999 9000W -SHRA FEW009 10/08 Q1018 NOSIG
Conditions at: EGNS (ISLE OF MAN/RONA, GB) observed 1620 UTC 18 March 2019
Temperature: 10.0°C (50°F)
Dewpoint: 8.0°C (46°F) [RH = 87%]
Pressure (altimeter): 30.06 inches Hg (1018.0 mb)
Winds: from the W (280 degrees) at 12 MPH (10 knots; 5.1 m/s)
Visibility: 6 or more miles (10+ km)
Ceiling: at least 12,000 feet AGL
Clouds: few clouds at 900 feet AGL
Weather: -SHRA  (light rain showers)

METAR text: EGNS 181550Z 27010KT 230V300 9999 FEW009 SCT020 09/08 Q1018 NOSIG
Conditions at: EGNS (ISLE OF MAN/RONA, GB) observed 1550 UTC 18 March 2019
Temperature: 9.0°C (48°F)
Dewpoint: 8.0°C (46°F) [RH = 93%]
Pressure (altimeter): 30.06 inches Hg (1018.0 mb)
Winds: from the W (270 degrees) at 12 MPH (10 knots; 5.1 m/s)
Visibility: 6 or more miles (10+ km)
Ceiling: at least 12,000 feet AGL
Clouds: few clouds at 900 feet AGL
scattered clouds at 2000 feet AGL
Weather: no significant weather observed at this time

METAR text: EGNS 181520Z 26008KT 220V310 9999 FEW009 BKN025 10/08 Q1018 RERA NOSIG
Conditions at: EGNS (ISLE OF MAN/RONA, GB) observed 1520 UTC 18 March 2019
Temperature: 10.0°C (50°F)
Dewpoint: 8.0°C (46°F) [RH = 87%]
Pressure (altimeter): 30.06 inches Hg (1018.0 mb)
Winds: from the W (260 degrees) at 9 MPH (8 knots; 4.1 m/s)
Visibility: 6 or more miles (10+ km)
Ceiling: 2500 feet AGL
Clouds: few clouds at 900 feet AGL
broken clouds at 2500 feet AGL
Weather: no significant weather observed at this time

METAR text: EGNS 181450Z 25008KT 9999 -RA SCT009 OVC020 09/08 Q1018 NOSIG
Conditions at: EGNS (ISLE OF MAN/RONA, GB) observed 1450 UTC 18 March 2019
Temperature: 9.0°C (48°F)
Dewpoint: 8.0°C (46°F) [RH = 93%]
Pressure (altimeter): 30.06 inches Hg (1018.0 mb)
Winds: from the WSW (250 degrees) at 9 MPH (8 knots; 4.1 m/s)
Visibility: 6 or more miles (10+ km)
Ceiling: 2000 feet AGL
Clouds: scattered clouds at 900 feet AGL
overcast cloud deck at 2000 feet AGL
Weather: -RA  (light rain)

Forecast for: EGNS (ISLE OF MAN/RONA, GB)
Text: TAF EGNS 191700Z 1918/1922 25013KT 9999 FEW006 BKN020
Forecast period: 1800 to 2200 UTC 19 March 2019
Forecast type: FROM: standard forecast or significant change
Winds: from the WSW (250 degrees) at 15 MPH (13 knots; 6.7 m/s)
Visibility: 6 or more miles 10+ km)
Ceiling: 2000 feet AGL
Clouds: few clouds at 600 feet AGL
broken clouds at 2000 feet AGL
Weather: no significant weather forecast for this period
Text: TEMPO 1918/1922 8000 -RADZ BKN006
Forecast period: 1800 to 2200 UTC 19 March 2019
Forecast type: TEMPORARY: The following changes expected for less than half the time period
Visibility: 5 miles (8 km)
Ceiling: 600 feet AGL
Clouds: broken clouds at 600 feet AGL
Weather: -RA -DZ  (light rain, light drizzle)